createdAt,value
2018-05-29T00:01:52.658Z,30.17
2018-05-29T00:04:19.633Z,27.80
2018-05-29T00:06:46.604Z,31.87
2018-05-29T00:09:14.331Z,30.60
2018-05-29T00:11:41.272Z,30.50
2018-05-29T00:14:08.280Z,30.27
2018-05-29T00:16:35.256Z,30.20
2018-05-29T00:19:02.259Z,30.93
2018-05-29T00:21:29.946Z,28.87
2018-05-29T00:23:56.878Z,29.83
2018-05-29T00:26:23.859Z,30.97
2018-05-29T00:28:50.847Z,30.83
2018-05-29T00:31:17.836Z,29.50
2018-05-29T00:33:44.796Z,29.83
2018-05-29T00:36:11.795Z,31.33
2018-05-29T00:38:39.491Z,29.00
2018-05-29T00:41:06.477Z,31.10
2018-05-29T00:43:34.416Z,31.10
2018-05-29T00:46:01.395Z,31.90
2018-05-29T00:48:28.394Z,32.50
2018-05-29T00:50:55.392Z,31.93
2018-05-29T00:53:23.107Z,31.63
2018-05-29T00:55:50.123Z,30.30
2018-05-29T00:58:17.095Z,29.90
2018-05-29T01:00:44.072Z,29.90
2018-05-29T01:03:11.052Z,29.30
2018-05-29T01:05:38.759Z,32.57
2018-05-29T01:10:38.552Z,30.40
2018-05-29T01:13:06.288Z,32.37
2018-05-29T01:15:34.048Z,28.97
2018-05-29T01:18:01.772Z,29.07
2018-05-29T01:20:28.752Z,29.90
2018-05-29T01:22:56.491Z,31.33
2018-05-29T01:25:23.484Z,31.60
2018-05-29T01:27:51.212Z,29.80
2018-05-29T01:30:18.200Z,28.87
2018-05-29T01:32:45.935Z,30.37
2018-05-29T01:35:12.904Z,30.50
2018-05-29T01:37:40.633Z,31.80
2018-05-29T01:40:07.636Z,31.77
2018-05-29T01:42:34.645Z,29.07
2018-05-29T01:45:02.412Z,30.87
2018-05-29T01:47:30.151Z,29.50
2018-05-29T01:49:57.126Z,32.07
2018-05-29T01:52:24.141Z,33.40
2018-05-29T01:54:51.134Z,33.10
2018-05-29T01:57:18.163Z,34.00
2018-05-29T01:59:45.128Z,34.80
2018-05-29T02:02:12.127Z,34.00
2018-05-29T02:04:39.187Z,31.93
2018-05-29T02:07:06.137Z,32.10
2018-05-29T02:09:33.879Z,32.40
2018-05-29T02:12:00.880Z,33.77
2018-05-29T02:14:27.875Z,33.37
2018-05-29T02:16:54.893Z,32.03
2018-05-29T02:19:22.637Z,30.83
2018-05-29T02:21:49.634Z,32.33
2018-05-29T02:24:16.623Z,33.07
2018-05-29T02:26:43.619Z,32.87
2018-05-29T02:29:10.623Z,34.27
2018-05-29T02:31:37.605Z,34.03
2018-05-29T02:34:04.602Z,32.20
2018-05-29T02:36:31.593Z,32.63
2018-05-29T02:38:58.585Z,35.60
2018-05-29T02:41:26.317Z,33.83
2018-05-29T02:43:53.315Z,35.27
2018-05-29T02:46:20.316Z,34.63
2018-05-29T02:48:47.319Z,32.87
2018-05-29T02:51:14.348Z,31.80
2018-05-29T02:53:42.044Z,33.00
2018-05-29T02:56:09.324Z,35.07
2018-05-29T02:58:36.310Z,32.10
2018-05-29T03:01:04.032Z,32.57
2018-05-29T03:03:31.032Z,30.40
2018-05-29T03:05:58.020Z,34.87
2018-05-29T03:08:25.041Z,34.00
2018-05-29T03:10:52.007Z,34.67
2018-05-29T03:13:19.020Z,34.80
2018-05-29T03:15:46.061Z,35.13
2018-05-29T03:18:13.028Z,34.53
2018-05-29T03:20:40.033Z,34.40
2018-05-29T03:23:07.023Z,34.63
2018-05-29T03:25:34.037Z,36.03
2018-05-29T03:28:01.745Z,32.50
2018-05-29T03:30:28.718Z,35.10
2018-05-29T03:32:55.708Z,34.00
2018-05-29T03:35:22.712Z,33.73
2018-05-29T03:37:50.468Z,32.90
2018-05-29T03:40:18.217Z,32.00
2018-05-29T03:42:45.183Z,34.27
2018-05-29T03:45:12.167Z,35.93
2018-05-29T03:47:39.151Z,31.70
2018-05-29T03:50:06.135Z,33.20
2018-05-29T03:52:33.103Z,32.33
2018-05-29T03:55:00.096Z,32.23
2018-05-29T03:57:27.091Z,35.97
2018-05-29T03:59:54.472Z,34.93
2018-05-29T04:02:22.288Z,35.17
2018-05-29T04:04:49.278Z,34.77
2018-05-29T04:07:17.018Z,34.27
2018-05-29T04:09:44.752Z,33.00
2018-05-29T04:12:12.828Z,35.90
2018-05-29T04:14:40.036Z,35.00
2018-05-29T04:17:07.056Z,34.63
2018-05-29T04:19:34.056Z,34.93
2018-05-29T04:22:01.039Z,35.00
2018-05-29T04:24:28.064Z,35.00
2018-05-29T04:26:55.836Z,34.47
2018-05-29T04:29:23.563Z,38.00
2018-05-29T04:31:50.546Z,34.60
2018-05-29T04:34:18.287Z,33.37
2018-05-29T04:36:45.295Z,34.83
2018-05-29T04:39:12.340Z,35.60
2018-05-29T04:41:39.345Z,35.77
2018-05-29T04:44:07.140Z,34.20
2018-05-29T04:46:34.157Z,35.93
2018-05-29T04:49:01.580Z,32.77
2018-05-29T04:51:29.439Z,36.67
2018-05-29T04:53:56.436Z,34.00
2018-05-29T04:56:23.463Z,35.23
2018-05-29T04:58:50.447Z,32.70
2018-05-29T05:01:17.453Z,32.40
2018-05-29T05:03:45.201Z,33.50
2018-05-29T05:06:12.180Z,33.93
2018-05-29T05:08:39.199Z,33.30
2018-05-29T05:11:06.223Z,32.23
2018-05-29T05:13:33.224Z,32.60
2018-05-29T05:16:00.702Z,33.00
2018-05-29T05:18:27.832Z,33.23
2018-05-29T05:20:55.588Z,33.07
2018-05-29T05:23:22.551Z,35.37
2018-05-29T05:25:49.563Z,32.23
2018-05-29T05:28:16.524Z,30.67
2018-05-29T05:30:43.493Z,29.60
2018-05-29T05:33:10.496Z,29.53
2018-05-29T05:35:37.478Z,32.73
2018-05-29T05:38:05.212Z,28.27
2018-05-29T05:40:32.168Z,30.60
2018-05-29T05:42:59.151Z,32.07
2018-05-29T05:45:26.876Z,28.87
2018-05-29T05:47:54.611Z,27.80
2018-05-29T05:50:21.644Z,28.93
2018-05-29T05:52:48.674Z,29.23
2018-05-29T05:55:15.676Z,31.30
2018-05-29T05:57:42.656Z,29.97
2018-05-29T06:00:09.672Z,29.10
2018-05-29T06:02:37.435Z,29.23
2018-05-29T06:05:04.536Z,29.23
2018-05-29T06:07:31.529Z,29.10
2018-05-29T06:09:59.278Z,24.03
2018-05-29T06:12:26.296Z,28.90
2018-05-29T06:14:53.276Z,29.80
2018-05-29T06:17:20.266Z,30.80
2018-05-29T06:19:47.291Z,32.90
2018-05-29T06:22:14.332Z,34.27
2018-05-29T06:24:41.336Z,28.43
2018-05-29T06:27:08.335Z,29.00
2018-05-29T06:29:36.081Z,32.47
2018-05-29T06:32:03.072Z,32.60
2018-05-29T06:34:30.065Z,32.97
2018-05-29T06:36:57.836Z,30.60
2018-05-29T06:39:24.852Z,29.10
2018-05-29T06:41:51.865Z,32.97
2018-05-29T06:44:18.879Z,32.87
2018-05-29T06:46:45.867Z,31.17
2018-05-29T06:49:12.869Z,31.83
2018-05-29T06:51:39.859Z,29.20
2018-05-29T06:54:06.868Z,29.13
2018-05-29T06:56:34.600Z,33.63
2018-05-29T06:59:01.592Z,32.57
2018-05-29T07:01:29.316Z,31.53
2018-05-29T07:03:56.365Z,31.23
2018-05-29T07:06:23.339Z,33.00
2018-05-29T07:08:50.343Z,32.40
2018-05-29T07:11:17.448Z,31.80
2018-05-29T07:13:44.436Z,29.53
2018-05-29T07:16:11.453Z,29.07
2018-05-29T07:18:38.574Z,31.03
2018-05-29T07:21:05.570Z,31.40
2018-05-29T07:23:32.541Z,29.93
2018-05-29T07:25:59.552Z,31.00
2018-05-29T07:28:26.529Z,29.00
2018-05-29T07:30:53.537Z,32.13
2018-05-29T07:33:20.559Z,30.20
2018-05-29T07:35:48.288Z,28.83
2018-05-29T07:38:15.288Z,32.07
2018-05-29T07:40:42.275Z,32.80
2018-05-29T07:43:09.260Z,34.03
2018-05-29T07:45:37.008Z,32.60
2018-05-29T07:48:04.017Z,34.67
2018-05-29T07:50:31.046Z,31.10
2018-05-29T07:52:58.027Z,29.97
2018-05-29T07:55:25.032Z,31.87
2018-05-29T07:57:52.032Z,38.07
2018-05-29T08:00:19.034Z,32.20
2018-05-29T08:02:46.049Z,31.00
2018-05-29T08:05:13.805Z,40.33
2018-05-29T08:07:41.544Z,32.43
2018-05-29T08:10:08.552Z,31.20
2018-05-29T08:12:35.560Z,28.80
2018-05-29T08:15:03.345Z,31.47
2018-05-29T08:17:31.083Z,29.37
2018-05-29T08:19:58.943Z,31.83
2018-05-29T08:22:25.928Z,28.67
2018-05-29T08:24:53.652Z,31.07
2018-05-29T08:27:20.651Z,32.17
2018-05-29T08:29:47.643Z,31.57
2018-05-29T08:32:14.632Z,34.83
2018-05-29T08:34:41.643Z,32.93
2018-05-29T08:37:08.627Z,32.87
2018-05-29T08:39:35.663Z,32.70
2018-05-29T08:42:03.440Z,33.73
2018-05-29T08:44:30.473Z,26.33
2018-05-29T08:46:58.223Z,27.50
2018-05-29T08:49:25.968Z,27.50
2018-05-29T08:51:52.978Z,25.43
2018-05-29T08:54:20.012Z,32.07
2018-05-29T08:56:47.793Z,29.10
2018-05-29T08:59:14.760Z,26.50
2018-05-29T09:01:41.757Z,25.77
2018-05-29T09:04:08.796Z,25.47
2018-05-29T09:06:35.817Z,25.60
2018-05-29T09:09:02.924Z,25.73
2018-05-29T09:11:29.927Z,24.03
2018-05-29T09:13:56.896Z,27.53
2018-05-29T09:16:23.908Z,26.20
2018-05-29T09:18:50.879Z,25.47
2018-05-29T09:21:17.856Z,25.47
2018-05-29T09:23:44.868Z,25.57
2018-05-29T09:26:11.875Z,22.00
2018-05-29T09:28:38.903Z,17.37
2018-05-29T09:31:05.903Z,19.33
2018-05-29T09:33:33.641Z,17.37
2018-05-29T09:36:00.655Z,19.40
2018-05-29T09:38:27.647Z,16.73
2018-05-29T09:40:55.400Z,15.67
2018-05-29T09:43:23.313Z,16.20
2018-05-29T09:45:50.662Z,16.47
2018-05-29T09:48:17.724Z,14.90
2018-05-29T09:50:44.686Z,24.20
2018-05-29T09:53:11.656Z,20.17
2018-05-29T09:55:38.639Z,17.90
2018-05-29T09:58:05.665Z,18.23
2018-05-29T10:00:38.796Z,18.73
2018-05-29T10:03:05.807Z,16.47
2018-05-29T10:05:33.568Z,17.63
2018-05-29T10:08:00.575Z,14.90
2018-05-29T10:10:27.584Z,15.93
2018-05-29T10:12:54.579Z,18.13
2018-05-29T10:15:21.591Z,16.27
2018-05-29T10:17:55.496Z,15.53
2018-05-29T10:20:22.521Z,17.27
2018-05-29T10:22:50.280Z,13.77
2018-05-29T10:25:18.020Z,14.60
2018-05-29T10:27:45.000Z,13.60
2018-05-29T10:30:11.996Z,14.43
2018-05-29T10:32:38.988Z,13.47
2018-05-29T10:35:06.010Z,13.40
2018-05-29T10:37:32.996Z,12.40
2018-05-29T10:40:00.196Z,12.50
2018-05-29T10:42:27.176Z,11.03
2018-05-29T10:44:54.168Z,12.90
2018-05-29T10:47:21.168Z,15.97
2018-05-29T10:49:48.138Z,16.60
2018-05-29T10:52:15.143Z,15.90
2018-05-29T10:54:42.112Z,15.80
2018-05-29T10:57:09.112Z,17.00
2018-05-29T10:59:36.099Z,16.03
2018-05-29T11:02:03.111Z,15.03
2018-05-29T11:04:30.111Z,15.77
2018-05-29T11:06:57.151Z,14.23
2018-05-29T11:09:24.120Z,13.67
2018-05-29T11:11:51.112Z,14.63
2018-05-29T11:14:18.149Z,17.20
2018-05-29T11:16:45.128Z,17.53
2018-05-29T11:19:12.164Z,16.17
2018-05-29T11:21:39.904Z,17.10
2018-05-29T11:24:06.916Z,15.93
2018-05-29T11:26:33.891Z,16.37
2018-05-29T11:29:00.908Z,15.97
2018-05-29T11:31:28.669Z,16.17
2018-05-29T11:33:55.678Z,14.23
2018-05-29T11:36:22.727Z,13.27
2018-05-29T11:38:49.728Z,13.70
2018-05-29T11:41:16.759Z,13.83
2018-05-29T11:43:43.743Z,12.77
2018-05-29T11:46:10.728Z,11.80
2018-05-29T11:48:37.762Z,13.17
2018-05-29T11:51:05.563Z,11.83
2018-05-29T11:53:32.565Z,12.87
2018-05-29T11:56:00.332Z,13.27
2018-05-29T11:58:28.068Z,13.03
2018-05-29T12:00:55.080Z,13.27
2018-05-29T12:03:22.063Z,11.67
2018-05-29T12:05:49.840Z,13.23
2018-05-29T12:08:17.582Z,15.13
2018-05-29T12:10:44.592Z,12.23
2018-05-29T12:13:11.608Z,11.77
2018-05-29T12:15:39.347Z,13.50
2018-05-29T12:18:06.327Z,14.10
2018-05-29T12:20:34.132Z,13.03
2018-05-29T12:23:01.128Z,13.00
2018-05-29T12:25:28.191Z,14.13
2018-05-29T12:27:55.195Z,13.93
2018-05-29T12:30:22.233Z,15.10
2018-05-29T12:32:49.256Z,15.17
2018-05-29T12:35:16.268Z,13.43
2018-05-29T12:37:44.011Z,13.83
2018-05-29T12:40:10.991Z,13.73
2018-05-29T12:42:38.001Z,14.80
2018-05-29T12:47:55.276Z,13.60
2018-05-29T12:50:22.321Z,14.47
2018-05-29T12:52:49.376Z,14.33
2018-05-29T12:55:16.432Z,14.40
2018-05-29T12:57:43.448Z,15.30
2018-05-29T13:00:11.191Z,15.67
2018-05-29T13:02:38.191Z,15.00
2018-05-29T13:05:05.235Z,14.90
2018-05-29T13:07:32.368Z,16.43
2018-05-29T13:09:59.441Z,19.70
2018-05-29T13:12:26.446Z,19.60
2018-05-29T13:14:54.591Z,20.90
2018-05-29T13:17:22.376Z,22.30
2018-05-29T13:19:50.117Z,21.20
2018-05-29T13:22:17.335Z,22.03
2018-05-29T13:24:44.349Z,22.33
2018-05-29T13:27:12.090Z,24.20
2018-05-29T13:29:39.092Z,24.70
2018-05-29T13:32:06.084Z,25.13
2018-05-29T13:34:33.135Z,25.17
2018-05-29T13:37:00.128Z,25.40
2018-05-29T13:39:27.140Z,24.80
2018-05-29T13:41:54.923Z,25.40
2018-05-29T13:44:22.656Z,26.93
2018-05-29T13:46:49.667Z,24.40
2018-05-29T13:49:16.656Z,25.40
2018-05-29T13:51:43.703Z,27.87
2018-05-29T13:54:10.703Z,27.53
2018-05-29T13:56:37.684Z,26.47
2018-05-29T13:59:04.753Z,25.63
2018-05-29T14:01:31.727Z,27.97
2018-05-29T14:03:58.723Z,24.77
2018-05-29T14:06:26.503Z,24.17
2018-05-29T14:08:54.285Z,25.23
2018-05-29T14:11:22.033Z,26.33
2018-05-29T14:13:49.013Z,25.33
2018-05-29T14:16:17.014Z,26.57
2018-05-29T14:18:43.995Z,24.00
2018-05-29T14:21:11.016Z,28.10
2018-05-29T14:23:38.021Z,26.73
2018-05-29T14:26:05.031Z,24.33
2018-05-29T14:28:32.786Z,27.43
2018-05-29T14:30:59.796Z,28.60
2018-05-29T14:33:26.827Z,30.80
2018-05-29T14:35:53.835Z,28.50
2018-05-29T14:38:21.588Z,28.70
2018-05-29T14:40:48.568Z,31.80
2018-05-29T14:43:15.567Z,32.80
2018-05-29T14:45:42.606Z,31.77
2018-05-29T14:48:09.611Z,29.87
2018-05-29T14:50:37.348Z,34.00
2018-05-29T14:53:04.353Z,30.10
2018-05-29T14:55:31.363Z,30.97
2018-05-29T14:57:59.104Z,28.30
2018-05-29T15:00:26.875Z,31.17
2018-05-29T15:02:54.627Z,32.70
2018-05-29T15:05:21.767Z,32.53
2018-05-29T15:07:48.746Z,33.17
2018-05-29T15:10:16.499Z,34.70
2018-05-29T15:12:43.456Z,32.47
2018-05-29T15:15:11.257Z,32.97
2018-05-29T15:17:38.260Z,35.20
2018-05-29T15:20:05.692Z,34.20
2018-05-29T15:22:35.745Z,39.20
2018-05-29T15:25:02.861Z,38.57
2018-05-29T15:27:29.885Z,38.67
2018-05-29T15:44:47.924Z,40.13
2018-05-29T15:47:14.972Z,44.03
2018-05-29T15:49:41.985Z,40.93
2018-05-29T15:52:09.075Z,39.50
2018-05-29T15:54:36.740Z,41.03
2018-05-29T15:57:04.129Z,41.63
2018-05-29T15:59:31.330Z,42.97
2018-05-29T16:01:58.356Z,41.60
2018-05-29T16:04:25.864Z,40.97
2018-05-29T16:06:53.624Z,42.30
2018-05-29T16:09:21.060Z,43.30
2018-05-29T16:11:49.070Z,42.00
2018-05-29T16:14:16.909Z,41.70
2018-05-29T16:16:44.048Z,43.10
2018-05-29T16:19:11.017Z,41.87
2018-05-29T16:21:38.020Z,44.90
2018-05-29T16:24:05.082Z,44.53
2018-05-29T16:26:32.132Z,41.43
2018-05-29T16:28:59.199Z,40.87
2018-05-29T16:31:26.209Z,42.00
2018-05-29T16:33:53.220Z,42.00
2018-05-29T16:36:20.384Z,42.40
2018-05-29T16:38:47.391Z,40.90
2018-05-29T16:41:15.176Z,38.63
2018-05-29T16:43:42.195Z,41.37
2018-05-29T16:46:09.204Z,42.03
2018-05-29T16:48:37.160Z,41.97
2018-05-29T16:51:04.387Z,39.00
2018-05-29T16:53:31.653Z,40.47
2018-05-29T16:55:58.740Z,39.00
2018-05-29T16:58:26.637Z,38.83
2018-05-29T17:00:53.656Z,37.87
2018-05-29T17:03:20.704Z,37.40
2018-05-29T17:05:47.830Z,33.80
2018-05-29T17:08:15.552Z,36.70
2018-05-29T17:10:43.397Z,33.00
2018-05-29T17:13:10.433Z,34.13
2018-05-29T17:15:37.464Z,34.00
2018-05-29T17:18:04.508Z,36.17
2018-05-29T17:20:31.524Z,34.87
2018-05-29T17:22:59.148Z,35.43
2018-05-29T17:25:26.918Z,33.77
2018-05-29T17:27:55.076Z,33.40
2018-05-29T17:30:22.222Z,33.90
2018-05-29T17:32:49.341Z,31.50
2018-05-29T17:35:16.824Z,30.70
2018-05-29T17:37:44.179Z,34.57
2018-05-29T17:40:11.333Z,32.63
2018-05-29T17:42:39.156Z,30.97
2018-05-29T17:45:07.052Z,35.23
2018-05-29T17:47:34.200Z,33.37
2018-05-29T17:50:02.087Z,32.80
2018-05-29T17:52:29.997Z,33.97
2018-05-29T17:54:57.865Z,33.87
2018-05-29T17:57:32.203Z,32.77
2018-05-29T17:59:59.516Z,33.17
2018-05-29T18:02:27.613Z,32.67
2018-05-29T18:04:54.752Z,26.93
2018-05-29T18:07:22.566Z,29.57
2018-05-29T18:09:49.819Z,30.77
2018-05-29T18:12:17.756Z,31.77
2018-05-29T18:14:45.608Z,31.97
2018-05-29T18:17:12.686Z,29.90
2018-05-29T18:19:39.703Z,33.63
2018-05-29T18:22:07.486Z,30.57
2018-05-29T18:24:34.551Z,30.03
2018-05-29T18:27:01.541Z,32.23
2018-05-29T18:29:30.220Z,29.87
2018-05-29T18:31:58.392Z,28.87
2018-05-29T18:34:25.591Z,26.07
2018-05-29T18:36:52.624Z,25.13
2018-05-29T18:39:19.652Z,27.70
2018-05-29T18:41:47.432Z,27.63
2018-05-29T18:44:14.456Z,22.80
2018-05-29T18:46:42.464Z,24.60
2018-05-29T18:49:10.683Z,25.27
2018-05-29T18:51:38.659Z,22.47
2018-05-29T18:54:07.236Z,24.43
2018-05-29T18:56:34.274Z,24.43
2018-05-29T18:59:01.938Z,27.63
2018-05-29T19:01:29.662Z,25.93
2018-05-29T19:03:57.753Z,24.73
2018-05-29T19:13:24.894Z,24.40
2018-05-29T19:15:53.010Z,24.50
2018-05-29T19:18:21.233Z,23.63
2018-05-29T19:20:48.722Z,24.23
2018-05-29T19:23:16.141Z,23.40
2018-05-29T19:25:44.636Z,22.93
2018-05-29T19:28:11.942Z,23.53
2018-05-29T19:30:40.097Z,24.27
2018-05-29T19:33:08.355Z,20.57
2018-05-29T19:35:36.433Z,24.43
2018-05-29T19:38:03.742Z,21.80
2018-05-29T19:40:31.496Z,21.07
2018-05-29T19:42:58.539Z,20.27
2018-05-29T19:45:25.602Z,19.60
2018-05-29T19:47:52.984Z,17.93
2018-05-29T19:50:20.081Z,19.27
2018-05-29T19:52:54.409Z,17.33
2018-05-29T19:55:22.825Z,17.57
2018-05-29T19:57:49.985Z,17.13
2018-05-29T20:00:18.137Z,18.37
2018-05-29T20:02:45.979Z,19.23
2018-05-29T20:05:13.165Z,17.33
2018-05-29T20:07:40.421Z,18.43
2018-05-29T20:10:07.626Z,17.43
2018-05-29T20:12:34.651Z,18.87
2018-05-29T20:15:01.760Z,19.90
2018-05-29T20:17:30.277Z,20.03
2018-05-29T20:19:57.414Z,19.77
2018-05-29T20:22:26.374Z,20.20
2018-05-29T20:24:54.336Z,19.67
2018-05-29T20:27:21.508Z,18.67
2018-05-29T20:29:49.288Z,19.03
2018-05-29T20:32:16.505Z,20.27
2018-05-29T20:34:44.357Z,19.40
2018-05-29T20:37:11.705Z,19.60
2018-05-29T20:39:38.872Z,18.47
2018-05-29T20:42:05.943Z,17.77
2018-05-29T20:44:32.934Z,16.63
2018-05-29T20:47:00.637Z,18.77
2018-05-29T20:49:27.673Z,19.93
2018-05-29T20:51:54.656Z,22.00
2018-05-29T20:54:21.803Z,24.73
2018-05-29T20:56:48.808Z,24.40
2018-05-29T20:59:15.823Z,26.80
2018-05-29T21:01:43.614Z,25.47
2018-05-29T21:04:10.632Z,23.97
2018-05-29T21:06:38.463Z,26.93
2018-05-29T21:09:05.568Z,27.60
2018-05-29T21:11:32.591Z,24.67
2018-05-29T21:13:59.652Z,25.10
2018-05-29T21:16:26.708Z,23.90
2018-05-29T21:18:53.700Z,25.43
2018-05-29T21:21:21.235Z,23.33
2018-05-29T21:23:48.232Z,23.27
2018-05-29T21:26:15.415Z,24.90
2018-05-29T21:28:42.424Z,28.90
2018-05-29T21:31:09.439Z,27.70
2018-05-29T21:33:36.449Z,24.87
2018-05-29T21:36:03.520Z,24.30
2018-05-29T21:38:30.523Z,23.67
2018-05-29T21:40:57.645Z,24.87
2018-05-29T21:43:24.673Z,24.50
2018-05-29T21:45:51.789Z,24.20
2018-05-29T21:48:18.792Z,26.87
2018-05-29T21:50:45.775Z,26.20
2018-05-29T21:53:12.778Z,25.00
2018-05-29T21:55:39.891Z,23.60
2018-05-29T21:58:06.892Z,28.77
2018-05-29T22:00:33.943Z,23.73
2018-05-29T22:03:00.984Z,23.23
2018-05-29T22:05:28.127Z,21.13
2018-05-29T22:07:55.157Z,23.27
2018-05-29T22:10:22.232Z,22.73
2018-05-29T22:12:49.223Z,22.43
2018-05-29T22:15:16.274Z,22.43
2018-05-29T22:17:43.275Z,23.40
2018-05-29T22:20:10.276Z,21.70
2018-05-29T22:22:37.272Z,19.60
2018-05-29T22:25:04.379Z,20.07
2018-05-29T22:27:31.521Z,19.97
2018-05-29T22:29:58.509Z,20.60
2018-05-29T22:32:25.500Z,21.33
2018-05-29T22:34:52.533Z,20.47
2018-05-29T22:37:19.544Z,20.93
2018-05-29T22:39:47.280Z,20.97
2018-05-29T22:42:14.303Z,18.57
2018-05-29T22:44:41.335Z,20.80
2018-05-29T22:47:08.320Z,18.73
2018-05-29T22:49:35.343Z,21.67
2018-05-29T22:52:02.347Z,20.30
2018-05-29T22:54:30.170Z,20.70
2018-05-29T22:56:57.192Z,21.53
2018-05-29T22:59:25.224Z,19.33
2018-05-29T23:01:52.989Z,20.93
2018-05-29T23:04:20.779Z,20.17
2018-05-29T23:06:47.859Z,19.47
2018-05-29T23:09:14.855Z,19.27
2018-05-29T23:11:42.599Z,19.47
2018-05-29T23:14:09.589Z,21.03
2018-05-29T23:16:36.641Z,20.27
2018-05-29T23:19:03.712Z,20.83
2018-05-29T23:21:30.687Z,18.40
2018-05-29T23:23:57.673Z,21.40
2018-05-29T23:26:25.445Z,19.30
2018-05-29T23:28:59.486Z,18.30
2018-05-29T23:31:26.484Z,17.63
2018-05-29T23:33:53.492Z,19.67
2018-05-29T23:36:20.611Z,17.80
2018-05-29T23:38:47.588Z,17.70
2018-05-29T23:41:14.592Z,17.17
2018-05-29T23:43:41.560Z,17.03
2018-05-29T23:46:08.607Z,18.97
2018-05-29T23:48:35.640Z,18.60
2018-05-29T23:51:02.677Z,17.97
2018-05-29T23:53:29.715Z,17.67
2018-05-29T23:55:56.774Z,16.10
2018-05-29T23:58:23.789Z,18.07
